createdAt,value
2022-07-27T00:00:10.066Z,65.93
2022-07-27T00:05:11.581Z,65.90
2022-07-27T00:10:13.425Z,67.15
2022-07-27T00:15:14.897Z,66.31
2022-07-27T00:20:16.490Z,68.08
2022-07-27T00:25:17.933Z,66.95
2022-07-27T00:30:19.706Z,67.12
2022-07-27T00:35:21.186Z,67.41
2022-07-27T00:40:22.696Z,67.76
2022-07-27T00:45:24.258Z,68.15
2022-07-27T00:50:25.817Z,68.26
2022-07-27T00:55:27.672Z,68.09
2022-07-27T01:00:29.205Z,68.56
2022-07-27T01:05:36.405Z,68.91
2022-07-27T01:10:40.328Z,69.34
2022-07-27T01:15:43.423Z,69.23
2022-07-27T01:20:45.001Z,69.44
2022-07-27T01:25:46.566Z,69.50
2022-07-27T01:30:48.143Z,69.84
2022-07-27T01:35:49.651Z,69.67
2022-07-27T01:40:53.319Z,70.39
2022-07-27T01:45:56.086Z,70.44
2022-07-27T01:50:57.885Z,70.42
2022-07-27T01:55:59.427Z,70.50
2022-07-27T02:01:00.857Z,71.00
2022-07-27T02:06:03.896Z,70.53
2022-07-27T02:11:23.958Z,71.14
2022-07-27T02:16:25.472Z,70.68
2022-07-27T02:21:27.813Z,70.94
2022-07-27T02:26:29.331Z,70.57
2022-07-27T02:31:32.873Z,70.59
2022-07-27T02:36:34.726Z,71.24
2022-07-27T02:41:36.170Z,71.07
2022-07-27T02:46:37.693Z,71.25
2022-07-27T02:51:39.514Z,71.14
2022-07-27T02:56:42.545Z,71.50
2022-07-27T03:01:45.206Z,71.48
2022-07-27T03:06:46.873Z,71.71
2022-07-27T03:11:48.372Z,72.26
2022-07-27T03:16:49.832Z,72.39
2022-07-27T03:21:51.311Z,72.38
2022-07-27T03:26:52.848Z,72.43
2022-07-27T03:31:54.335Z,72.27
2022-07-27T03:36:55.832Z,72.48
2022-07-27T03:41:57.300Z,72.68
2022-07-27T03:46:58.966Z,72.85
2022-07-27T03:52:00.835Z,72.96
2022-07-27T03:57:02.368Z,73.54
2022-07-27T04:02:04.801Z,72.88
2022-07-27T04:07:06.300Z,72.91
2022-07-27T04:12:08.210Z,72.92
2022-07-27T04:17:09.769Z,73.54
2022-07-27T04:22:11.288Z,73.31
2022-07-27T04:27:13.848Z,73.20
2022-07-27T04:32:15.342Z,72.94
2022-07-27T04:37:16.835Z,72.40
2022-07-27T04:42:18.358Z,71.82
2022-07-27T04:47:19.813Z,71.50
2022-07-27T04:52:26.795Z,71.50
2022-07-27T04:57:31.429Z,70.99
2022-07-27T05:02:33.013Z,70.24
2022-07-27T05:07:34.640Z,69.52
2022-07-27T05:12:36.069Z,69.28
2022-07-27T05:17:37.558Z,68.46
2022-07-27T05:22:39.957Z,68.22
2022-07-27T05:27:54.038Z,67.72
2022-07-27T05:32:56.243Z,67.36
2022-07-27T05:37:57.676Z,67.21
2022-07-27T05:42:59.588Z,66.75
2022-07-27T05:48:01.149Z,67.09
2022-07-27T05:53:02.653Z,66.83
2022-07-27T05:58:04.943Z,66.09
2022-07-27T06:03:06.431Z,65.91
2022-07-27T06:08:10.936Z,65.98
2022-07-27T06:13:12.509Z,65.73
2022-07-27T06:18:18.209Z,65.15
2022-07-27T06:23:19.685Z,65.19
2022-07-27T06:28:21.956Z,64.25
2022-07-27T06:33:28.924Z,64.37
2022-07-27T06:38:30.720Z,64.30
2022-07-27T06:43:32.414Z,64.54
2022-07-27T06:48:34.198Z,64.44
2022-07-27T06:53:37.012Z,63.97
2022-07-27T06:58:39.029Z,63.65
2022-07-27T07:03:40.606Z,62.21
2022-07-27T07:08:42.215Z,63.22
2022-07-27T07:13:45.157Z,63.05
2022-07-27T07:18:52.027Z,62.43
2022-07-27T07:23:54.076Z,61.85
2022-07-27T07:28:55.524Z,61.54
2022-07-27T07:33:58.638Z,60.60
2022-07-27T07:39:00.873Z,61.47
2022-07-27T07:44:02.366Z,61.17
2022-07-27T07:49:05.248Z,60.02
2022-07-27T07:54:06.751Z,60.17
2022-07-27T07:59:08.343Z,57.87
2022-07-27T08:04:10.066Z,57.82
2022-07-27T08:09:13.302Z,57.01
2022-07-27T08:14:15.060Z,57.00
2022-07-27T08:19:16.506Z,56.42
2022-07-27T08:24:17.971Z,56.10
2022-07-27T08:29:23.106Z,53.27
2022-07-27T08:34:24.848Z,53.61
2022-07-27T08:40:19.854Z,54.01
2022-07-27T08:44:47.853Z,53.83
2022-07-27T08:49:49.848Z,53.65
2022-07-27T08:54:51.571Z,52.05
2022-07-27T08:59:56.757Z,51.49
2022-07-27T09:04:58.662Z,51.54
2022-07-27T09:10:00.166Z,50.85
2022-07-27T09:15:13.374Z,49.16
2022-07-27T09:20:18.573Z,48.30
2022-07-27T09:25:38.711Z,48.88
2022-07-27T09:30:45.346Z,48.39
2022-07-27T09:35:58.086Z,46.44
2022-07-27T09:41:06.142Z,46.62
2022-07-27T09:46:08.063Z,48.86
2022-07-27T09:51:55.606Z,48.31
2022-07-27T09:56:33.305Z,48.88
2022-07-27T10:01:42.233Z,48.38
2022-07-27T10:07:02.105Z,48.50
2022-07-27T10:12:04.993Z,47.67
2022-07-27T10:17:07.596Z,46.03
2022-07-27T10:22:09.104Z,47.11
2022-07-27T10:27:30.098Z,47.06
2022-07-27T10:32:33.325Z,47.25
2022-07-27T10:37:34.985Z,46.28
2022-07-27T10:42:36.581Z,47.08
2022-07-27T10:47:42.714Z,46.51
2022-07-27T10:52:48.426Z,46.80
2022-07-27T10:57:49.950Z,46.53
2022-07-27T11:02:51.434Z,46.66
2022-07-27T11:08:34.663Z,45.70
2022-07-27T11:13:14.533Z,45.38
2022-07-27T11:18:16.214Z,44.76
2022-07-27T11:28:41.718Z,42.16
2022-07-27T11:33:56.144Z,43.12
2022-07-27T11:38:57.597Z,43.02
2022-07-27T11:44:02.249Z,41.79
2022-07-27T11:49:08.743Z,42.32
2022-07-27T11:54:12.301Z,42.34
2022-07-27T11:59:17.246Z,41.68
2022-07-27T12:04:38.987Z,42.37
2022-07-27T12:09:45.734Z,42.90
2022-07-27T12:14:56.543Z,43.09
2022-07-27T12:20:04.129Z,43.25
2022-07-27T12:25:29.692Z,43.25
2022-07-27T12:30:46.187Z,42.84
2022-07-27T12:35:47.762Z,42.77
2022-07-27T12:41:00.194Z,43.06
2022-07-27T12:46:13.792Z,42.93
2022-07-27T12:51:23.661Z,43.05
2022-07-27T12:56:27.742Z,42.85
2022-07-27T13:01:30.195Z,42.75
2022-07-27T13:06:31.709Z,42.29
2022-07-27T13:11:33.196Z,41.43
2022-07-27T13:16:34.757Z,42.22
2022-07-27T13:21:36.380Z,41.43
2022-07-27T13:26:38.426Z,41.60
2022-07-27T13:31:47.004Z,41.71
2022-07-27T13:36:51.546Z,41.08
2022-07-27T13:41:55.068Z,40.41
2022-07-27T13:46:56.652Z,41.03
2022-07-27T13:51:58.137Z,41.33
2022-07-27T13:56:59.572Z,41.53
2022-07-27T14:02:01.297Z,41.83
2022-07-27T14:07:02.959Z,42.51
2022-07-27T14:12:04.951Z,43.17
2022-07-27T14:17:06.964Z,42.96
2022-07-27T14:22:10.695Z,43.01
2022-07-27T14:27:12.177Z,44.00
2022-07-27T14:32:13.750Z,45.01
2022-07-27T14:37:15.650Z,44.97
2022-07-27T14:42:21.943Z,44.23
2022-07-27T14:47:23.504Z,44.37
2022-07-27T14:52:25.040Z,45.69
2022-07-27T14:57:27.513Z,46.98
2022-07-27T15:02:29.095Z,48.62
2022-07-27T15:07:30.722Z,48.36
2022-07-27T15:12:37.539Z,49.27
2022-07-27T15:17:39.422Z,49.54
2022-07-27T15:22:40.908Z,50.00
2022-07-27T15:27:42.665Z,49.72
2022-07-27T15:32:44.115Z,51.56
2022-07-27T15:37:54.198Z,51.87
2022-07-27T15:42:56.474Z,50.53
2022-07-27T15:47:57.967Z,50.99
2022-07-27T15:52:59.406Z,51.31
2022-07-27T15:58:00.904Z,51.57
2022-07-27T16:03:02.621Z,51.19
2022-07-27T16:08:04.453Z,51.00
2022-07-27T16:13:08.866Z,50.81
2022-07-27T16:18:10.830Z,51.13
2022-07-27T16:23:18.842Z,51.62
2022-07-27T16:28:24.943Z,52.25
2022-07-27T16:33:26.459Z,51.50
2022-07-27T16:38:28.320Z,51.13
2022-07-27T16:43:37.393Z,51.43
2022-07-27T16:48:43.699Z,50.52
2022-07-27T16:53:48.041Z,50.20
2022-07-27T16:58:50.019Z,49.94
2022-07-27T17:03:51.519Z,49.55
2022-07-27T17:08:53.796Z,50.18
2022-07-27T17:13:58.896Z,50.02
2022-07-27T17:19:01.345Z,49.82
2022-07-27T17:24:02.948Z,50.31
2022-07-27T17:29:05.373Z,50.19
2022-07-27T17:34:06.896Z,50.44
2022-07-27T17:39:09.570Z,50.47
2022-07-27T17:44:13.293Z,50.47
2022-07-27T17:49:15.054Z,50.62
2022-07-27T17:54:16.873Z,50.70
2022-07-27T17:59:36.990Z,50.86
2022-07-27T18:04:39.891Z,51.48
2022-07-27T18:09:41.498Z,51.46
2022-07-27T18:15:02.900Z,51.22
2022-07-27T18:20:07.413Z,51.33
2022-07-27T18:25:09.582Z,51.78
2022-07-27T18:30:12.311Z,51.72
2022-07-27T18:35:13.847Z,52.16
2022-07-27T18:40:15.397Z,52.39
2022-07-27T18:45:16.883Z,52.79
2022-07-27T18:50:18.514Z,53.14
2022-07-27T18:55:22.683Z,53.02
2022-07-27T19:00:25.724Z,53.39
2022-07-27T19:05:32.490Z,53.55
2022-07-27T19:10:42.982Z,53.89
2022-07-27T19:15:45.333Z,54.08
2022-07-27T19:20:47.003Z,54.35
2022-07-27T19:25:48.563Z,54.63
2022-07-27T19:30:50.090Z,54.95
2022-07-27T19:35:52.613Z,55.05
2022-07-27T19:40:55.006Z,55.12
2022-07-27T19:45:56.521Z,55.30
2022-07-27T19:51:03.275Z,55.50
2022-07-27T19:56:07.988Z,55.98
2022-07-27T20:01:10.360Z,55.78
2022-07-27T20:06:14.155Z,56.23
2022-07-27T20:11:15.771Z,56.41
2022-07-27T20:16:17.954Z,56.35
2022-07-27T20:21:22.974Z,56.24
2022-07-27T20:26:25.169Z,56.36
2022-07-27T20:31:28.255Z,56.46
2022-07-27T20:36:29.763Z,56.72
2022-07-27T20:41:31.275Z,56.72
2022-07-27T20:46:32.737Z,57.29
2022-07-27T20:51:35.726Z,57.50
2022-07-27T20:56:37.636Z,57.73
2022-07-27T21:01:40.045Z,58.00
2022-07-27T21:06:41.607Z,58.33
2022-07-27T21:11:43.212Z,58.25
2022-07-27T21:16:44.687Z,58.67
2022-07-27T21:21:46.465Z,58.67
2022-07-27T21:26:50.528Z,58.74
2022-07-27T21:31:52.091Z,58.92
2022-07-27T21:36:53.548Z,59.35
2022-07-27T21:42:01.457Z,59.54
2022-07-27T21:47:09.940Z,59.88
2022-07-27T21:52:14.752Z,59.82
2022-07-27T21:57:16.517Z,60.21
2022-07-27T22:02:17.957Z,60.62
2022-07-27T22:07:19.704Z,60.46
2022-07-27T22:12:21.270Z,60.99
2022-07-27T22:17:22.729Z,61.33
2022-07-27T22:22:24.236Z,61.38
2022-07-27T22:27:26.040Z,61.56
2022-07-27T22:32:27.560Z,61.57
2022-07-27T22:37:29.006Z,61.65
2022-07-27T22:42:30.485Z,61.85
2022-07-27T22:47:32.452Z,62.36
2022-07-27T22:52:34.575Z,62.36
2022-07-27T22:57:36.113Z,62.24
2022-07-27T23:02:37.596Z,62.40
2022-07-27T23:07:39.071Z,62.28
2022-07-27T23:12:40.763Z,62.48
2022-07-27T23:17:42.245Z,62.62
2022-07-27T23:22:44.473Z,62.79
2022-07-27T23:27:52.081Z,62.87
2022-07-27T23:32:54.587Z,63.01
2022-07-27T23:37:56.146Z,62.89
2022-07-27T23:42:57.618Z,62.26
2022-07-27T23:47:59.056Z,61.90
2022-07-27T23:53:00.507Z,61.62
2022-07-27T23:58:01.943Z,61.19
